sensor_id;sensor_type;location;lat;lon;timestamp;P1;durP1;ratioP1;P2;durP2;ratioP2
51326;SDS011;37412;52.836;6.362;2023-04-03T00:01:35;3.95;;;1.70;;
51326;SDS011;37412;52.836;6.362;2023-04-03T00:04:23;3.87;;;1.70;;
51326;SDS011;37412;52.836;6.362;2023-04-03T00:07:10;4.40;;;1.20;;
51326;SDS011;37412;52.836;6.362;2023-04-03T00:09:57;6.03;;;1.70;;
51326;SDS011;37412;52.836;6.362;2023-04-03T00:12:43;2.65;;;1.52;;
51326;SDS011;37412;52.836;6.362;2023-04-03T00:15:29;2.75;;;1.50;;
51326;SDS011;37412;52.836;6.362;2023-04-03T00:18:15;4.63;;;1.50;;
51326;SDS011;37412;52.836;6.362;2023-04-03T00:21:02;3.00;;;1.60;;
51326;SDS011;37412;52.836;6.362;2023-04-03T00:23:48;3.23;;;1.50;;
51326;SDS011;37412;52.836;6.362;2023-04-03T00:26:34;3.83;;;1.50;;
51326;SDS011;37412;52.836;6.362;2023-04-03T00:29:20;3.40;;;1.65;;
51326;SDS011;37412;52.836;6.362;2023-04-03T00:32:07;2.60;;;1.67;;
51326;SDS011;37412;52.836;6.362;2023-04-03T00:34:53;3.00;;;1.60;;
51326;SDS011;37412;52.836;6.362;2023-04-03T00:37:42;3.13;;;1.50;;
51326;SDS011;37412;52.836;6.362;2023-04-03T00:40:32;2.85;;;1.40;;
51326;SDS011;37412;52.836;6.362;2023-04-03T00:43:24;4.72;;;1.80;;
51326;SDS011;37412;52.836;6.362;2023-04-03T00:46:11;3.28;;;1.38;;
51326;SDS011;37412;52.836;6.362;2023-04-03T00:48:57;2.88;;;1.40;;
51326;SDS011;37412;52.836;6.362;2023-04-03T00:51:43;2.70;;;1.30;;
51326;SDS011;37412;52.836;6.362;2023-04-03T00:54:29;2.13;;;1.33;;
51326;SDS011;37412;52.836;6.362;2023-04-03T00:57:15;4.83;;;1.53;;
51326;SDS011;37412;52.836;6.362;2023-04-03T01:00:07;2.83;;;1.40;;
51326;SDS011;37412;52.836;6.362;2023-04-03T01:02:55;3.20;;;1.20;;
51326;SDS011;37412;52.836;6.362;2023-04-03T01:05:41;2.28;;;1.23;;
51326;SDS011;37412;52.836;6.362;2023-04-03T01:08:27;3.00;;;1.45;;
51326;SDS011;37412;52.836;6.362;2023-04-03T01:11:14;3.55;;;1.60;;
51326;SDS011;37412;52.836;6.362;2023-04-03T01:14:00;3.85;;;1.60;;
51326;SDS011;37412;52.836;6.362;2023-04-03T01:16:52;3.88;;;1.45;;
51326;SDS011;37412;52.836;6.362;2023-04-03T01:19:39;5.07;;;1.50;;
51326;SDS011;37412;52.836;6.362;2023-04-03T01:22:39;2.97;;;1.40;;
51326;SDS011;37412;52.836;6.362;2023-04-03T01:25:33;3.17;;;1.50;;
51326;SDS011;37412;52.836;6.362;2023-04-03T01:28:22;3.38;;;1.58;;
51326;SDS011;37412;52.836;6.362;2023-04-03T01:34:06;4.00;;;1.50;;
51326;SDS011;37412;52.836;6.362;2023-04-03T01:36:52;3.45;;;1.30;;
51326;SDS011;37412;52.836;6.362;2023-04-03T01:39:38;4.33;;;1.63;;
51326;SDS011;37412;52.836;6.362;2023-04-03T01:42:24;4.37;;;1.60;;
51326;SDS011;37412;52.836;6.362;2023-04-03T01:45:10;3.60;;;1.63;;
51326;SDS011;37412;52.836;6.362;2023-04-03T01:47:56;4.88;;;1.70;;
51326;SDS011;37412;52.836;6.362;2023-04-03T01:50:42;3.03;;;1.60;;
51326;SDS011;37412;52.836;6.362;2023-04-03T01:53:28;3.80;;;1.70;;
51326;SDS011;37412;52.836;6.362;2023-04-03T01:56:14;4.63;;;1.60;;
51326;SDS011;37412;52.836;6.362;2023-04-03T01:59:00;3.75;;;1.70;;
51326;SDS011;37412;52.836;6.362;2023-04-03T02:01:46;3.13;;;1.70;;
51326;SDS011;37412;52.836;6.362;2023-04-03T02:04:32;4.75;;;1.63;;
51326;SDS011;37412;52.836;6.362;2023-04-03T02:07:18;3.92;;;1.77;;
51326;SDS011;37412;52.836;6.362;2023-04-03T02:10:04;3.97;;;1.80;;
51326;SDS011;37412;52.836;6.362;2023-04-03T02:12:50;6.05;;;1.95;;
51326;SDS011;37412;52.836;6.362;2023-04-03T02:15:39;5.43;;;1.80;;
51326;SDS011;37412;52.836;6.362;2023-04-03T02:18:25;3.83;;;1.70;;
51326;SDS011;37412;52.836;6.362;2023-04-03T02:21:11;3.78;;;1.80;;
51326;SDS011;37412;52.836;6.362;2023-04-03T02:23:57;4.83;;;2.07;;
51326;SDS011;37412;52.836;6.362;2023-04-03T02:26:43;4.68;;;2.00;;
51326;SDS011;37412;52.836;6.362;2023-04-03T02:29:29;3.35;;;1.80;;
51326;SDS011;37412;52.836;6.362;2023-04-03T02:32:15;3.80;;;2.00;;
51326;SDS011;37412;52.836;6.362;2023-04-03T02:35:01;5.78;;;2.03;;
51326;SDS011;37412;52.836;6.362;2023-04-03T02:37:47;4.95;;;2.10;;
51326;SDS011;37412;52.836;6.362;2023-04-03T02:40:33;3.80;;;2.00;;
51326;SDS011;37412;52.836;6.362;2023-04-03T02:43:19;3.65;;;2.10;;
51326;SDS011;37412;52.836;6.362;2023-04-03T02:46:05;5.20;;;2.50;;
51326;SDS011;37412;52.836;6.362;2023-04-03T02:48:51;5.50;;;2.40;;
51326;SDS011;37412;52.836;6.362;2023-04-03T02:51:36;6.50;;;2.20;;
51326;SDS011;37412;52.836;6.362;2023-04-03T02:54:22;3.53;;;2.00;;
51326;SDS011;37412;52.836;6.362;2023-04-03T02:57:13;6.53;;;2.42;;
51326;SDS011;37412;52.836;6.362;2023-04-03T02:59:59;5.13;;;2.10;;
51326;SDS011;37412;52.836;6.362;2023-04-03T03:02:45;4.75;;;2.10;;
51326;SDS011;37412;52.836;6.362;2023-04-03T03:05:31;4.47;;;2.08;;
51326;SDS011;37412;52.836;6.362;2023-04-03T03:08:17;5.63;;;2.20;;
51326;SDS011;37412;52.836;6.362;2023-04-03T03:11:05;6.15;;;2.47;;
51326;SDS011;37412;52.836;6.362;2023-04-03T03:13:51;8.00;;;2.40;;
51326;SDS011;37412;52.836;6.362;2023-04-03T03:16:37;5.40;;;2.20;;
51326;SDS011;37412;52.836;6.362;2023-04-03T03:19:23;6.13;;;2.22;;
51326;SDS011;37412;52.836;6.362;2023-04-03T03:22:09;4.25;;;2.10;;
51326;SDS011;37412;52.836;6.362;2023-04-03T03:24:55;4.05;;;2.30;;
51326;SDS011;37412;52.836;6.362;2023-04-03T03:27:41;5.20;;;2.30;;
51326;SDS011;37412;52.836;6.362;2023-04-03T03:30:27;5.57;;;2.38;;
51326;SDS011;37412;52.836;6.362;2023-04-03T03:33:13;7.22;;;2.42;;
51326;SDS011;37412;52.836;6.362;2023-04-03T03:35:59;5.87;;;2.40;;
51326;SDS011;37412;52.836;6.362;2023-04-03T03:38:45;5.88;;;2.45;;
51326;SDS011;37412;52.836;6.362;2023-04-03T03:41:31;5.75;;;2.40;;
51326;SDS011;37412;52.836;6.362;2023-04-03T03:44:17;5.40;;;2.40;;
51326;SDS011;37412;52.836;6.362;2023-04-03T03:47:03;5.53;;;2.30;;
51326;SDS011;37412;52.836;6.362;2023-04-03T03:49:51;5.43;;;2.47;;
51326;SDS011;37412;52.836;6.362;2023-04-03T03:52:38;6.03;;;2.45;;
51326;SDS011;37412;52.836;6.362;2023-04-03T03:55:24;9.52;;;2.70;;
51326;SDS011;37412;52.836;6.362;2023-04-03T03:58:10;6.80;;;2.80;;
51326;SDS011;37412;52.836;6.362;2023-04-03T04:00:56;7.32;;;2.90;;
51326;SDS011;37412;52.836;6.362;2023-04-03T04:03:45;7.88;;;2.67;;
51326;SDS011;37412;52.836;6.362;2023-04-03T04:06:31;4.97;;;2.40;;
51326;SDS011;37412;52.836;6.362;2023-04-03T04:09:17;7.03;;;2.75;;
51326;SDS011;37412;52.836;6.362;2023-04-03T04:12:03;4.80;;;2.77;;
51326;SDS011;37412;52.836;6.362;2023-04-03T04:14:49;5.13;;;2.42;;
51326;SDS011;37412;52.836;6.362;2023-04-03T04:17:35;6.82;;;2.65;;
51326;SDS011;37412;52.836;6.362;2023-04-03T04:20:21;6.03;;;2.75;;
51326;SDS011;37412;52.836;6.362;2023-04-03T04:23:07;8.43;;;2.60;;
51326;SDS011;37412;52.836;6.362;2023-04-03T04:45:17;5.85;;;2.08;;
51326;SDS011;37412;52.836;6.362;2023-04-03T04:50:49;6.18;;;2.47;;
51326;SDS011;37412;52.836;6.362;2023-04-03T04:53:35;8.27;;;2.10;;
51326;SDS011;37412;52.836;6.362;2023-04-03T04:56:21;6.05;;;2.33;;
51326;SDS011;37412;52.836;6.362;2023-04-03T04:59:07;8.02;;;2.65;;
51326;SDS011;37412;52.836;6.362;2023-04-03T05:01:53;7.13;;;2.30;;
51326;SDS011;37412;52.836;6.362;2023-04-03T05:04:42;5.97;;;2.95;;
51326;SDS011;37412;52.836;6.362;2023-04-03T05:07:28;8.02;;;2.63;;
51326;SDS011;37412;52.836;6.362;2023-04-03T05:10:13;8.07;;;2.22;;
51326;SDS011;37412;52.836;6.362;2023-04-03T05:12:59;8.20;;;2.63;;
51326;SDS011;37412;52.836;6.362;2023-04-03T05:15:46;10.48;;;2.72;;
51326;SDS011;37412;52.836;6.362;2023-04-03T05:18:35;5.88;;;2.75;;
51326;SDS011;37412;52.836;6.362;2023-04-03T05:21:21;4.05;;;2.60;;
51326;SDS011;37412;52.836;6.362;2023-04-03T05:24:08;8.57;;;3.20;;
51326;SDS011;37412;52.836;6.362;2023-04-03T05:26:54;9.27;;;3.30;;
51326;SDS011;37412;52.836;6.362;2023-04-03T05:29:40;11.70;;;5.15;;
51326;SDS011;37412;52.836;6.362;2023-04-03T05:32:28;9.80;;;4.60;;
51326;SDS011;37412;52.836;6.362;2023-04-03T05:35:15;11.10;;;4.55;;
51326;SDS011;37412;52.836;6.362;2023-04-03T05:38:01;10.13;;;5.20;;
51326;SDS011;37412;52.836;6.362;2023-04-03T05:40:47;12.02;;;6.25;;
51326;SDS011;37412;52.836;6.362;2023-04-03T05:43:32;17.98;;;8.50;;
51326;SDS011;37412;52.836;6.362;2023-04-03T05:46:19;15.23;;;7.30;;
51326;SDS011;37412;52.836;6.362;2023-04-03T05:49:06;21.48;;;9.68;;
51326;SDS011;37412;52.836;6.362;2023-04-03T05:51:52;13.60;;;5.82;;
51326;SDS011;37412;52.836;6.362;2023-04-03T05:54:38;11.50;;;5.32;;
51326;SDS011;37412;52.836;6.362;2023-04-03T05:57:24;17.67;;;7.22;;
51326;SDS011;37412;52.836;6.362;2023-04-03T06:00:12;13.38;;;6.53;;
51326;SDS011;37412;52.836;6.362;2023-04-03T06:03:00;11.38;;;4.85;;
51326;SDS011;37412;52.836;6.362;2023-04-03T06:05:46;15.70;;;7.15;;
51326;SDS011;37412;52.836;6.362;2023-04-03T06:08:32;19.20;;;8.65;;
51326;SDS011;37412;52.836;6.362;2023-04-03T06:11:21;8.70;;;4.70;;
51326;SDS011;37412;52.836;6.362;2023-04-03T06:14:07;6.97;;;4.10;;
51326;SDS011;37412;52.836;6.362;2023-04-03T06:16:54;9.75;;;4.05;;
51326;SDS011;37412;52.836;6.362;2023-04-03T06:19:41;8.23;;;3.45;;
51326;SDS011;37412;52.836;6.362;2023-04-03T06:22:27;10.73;;;3.47;;
51326;SDS011;37412;52.836;6.362;2023-04-03T06:25:15;6.68;;;3.72;;
51326;SDS011;37412;52.836;6.362;2023-04-03T06:28:02;7.53;;;3.45;;
51326;SDS011;37412;52.836;6.362;2023-04-03T06:30:48;10.52;;;3.83;;
51326;SDS011;37412;52.836;6.362;2023-04-03T06:33:34;7.40;;;3.70;;
51326;SDS011;37412;52.836;6.362;2023-04-03T06:36:20;9.73;;;3.92;;
51326;SDS011;37412;52.836;6.362;2023-04-03T06:39:07;8.90;;;3.60;;
51326;SDS011;37412;52.836;6.362;2023-04-03T06:41:54;10.70;;;3.60;;
51326;SDS011;37412;52.836;6.362;2023-04-03T06:44:40;11.35;;;3.33;;
51326;SDS011;37412;52.836;6.362;2023-04-03T06:47:26;6.88;;;2.80;;
51326;SDS011;37412;52.836;6.362;2023-04-03T06:50:12;7.15;;;2.85;;
51326;SDS011;37412;52.836;6.362;2023-04-03T06:52:59;5.60;;;3.03;;
51326;SDS011;37412;52.836;6.362;2023-04-03T06:55:46;5.88;;;2.35;;
51326;SDS011;37412;52.836;6.362;2023-04-03T06:58:32;9.60;;;3.40;;
51326;SDS011;37412;52.836;6.362;2023-04-03T07:01:18;6.22;;;3.85;;
51326;SDS011;37412;52.836;6.362;2023-04-03T07:04:04;6.13;;;2.40;;
51326;SDS011;37412;52.836;6.362;2023-04-03T07:06:51;8.15;;;2.47;;
51326;SDS011;37412;52.836;6.362;2023-04-03T07:09:37;6.63;;;2.45;;
51326;SDS011;37412;52.836;6.362;2023-04-03T07:12:23;5.38;;;2.47;;
51326;SDS011;37412;52.836;6.362;2023-04-03T07:15:09;7.07;;;1.95;;
51326;SDS011;37412;52.836;6.362;2023-04-03T07:17:57;5.10;;;2.28;;
51326;SDS011;37412;52.836;6.362;2023-04-03T07:20:43;3.58;;;2.00;;
51326;SDS011;37412;52.836;6.362;2023-04-03T07:23:29;8.07;;;2.42;;
51326;SDS011;37412;52.836;6.362;2023-04-03T07:26:15;6.15;;;2.08;;
51326;SDS011;37412;52.836;6.362;2023-04-03T07:29:01;6.32;;;1.85;;
51326;SDS011;37412;52.836;6.362;2023-04-03T07:31:47;3.80;;;1.90;;
51326;SDS011;37412;52.836;6.362;2023-04-03T07:34:33;6.35;;;2.17;;
51326;SDS011;37412;52.836;6.362;2023-04-03T07:37:19;4.97;;;1.85;;
51326;SDS011;37412;52.836;6.362;2023-04-03T07:40:06;7.53;;;1.90;;
51326;SDS011;37412;52.836;6.362;2023-04-03T07:45:38;7.40;;;1.92;;
51326;SDS011;37412;52.836;6.362;2023-04-03T07:53:59;4.15;;;1.80;;
51326;SDS011;37412;52.836;6.362;2023-04-03T08:05:02;4.38;;;1.52;;
51326;SDS011;37412;52.836;6.362;2023-04-03T08:07:48;5.75;;;1.50;;
51326;SDS011;37412;52.836;6.362;2023-04-03T08:10:34;3.38;;;1.50;;
51326;SDS011;37412;52.836;6.362;2023-04-03T08:13:20;4.68;;;1.60;;
51326;SDS011;37412;52.836;6.362;2023-04-03T08:16:08;5.47;;;1.60;;
51326;SDS011;37412;52.836;6.362;2023-04-03T08:18:54;3.47;;;1.45;;
51326;SDS011;37412;52.836;6.362;2023-04-03T08:21:40;4.00;;;1.55;;
51326;SDS011;37412;52.836;6.362;2023-04-03T08:24:26;5.10;;;1.40;;
51326;SDS011;37412;52.836;6.362;2023-04-03T08:27:12;5.85;;;1.80;;
51326;SDS011;37412;52.836;6.362;2023-04-03T08:29:58;3.33;;;1.35;;
51326;SDS011;37412;52.836;6.362;2023-04-03T08:32:45;7.68;;;1.50;;
51326;SDS011;37412;52.836;6.362;2023-04-03T08:35:31;3.33;;;1.25;;
51326;SDS011;37412;52.836;6.362;2023-04-03T08:38:17;3.33;;;1.40;;
51326;SDS011;37412;52.836;6.362;2023-04-03T08:47:11;2.45;;;1.30;;
51326;SDS011;37412;52.836;6.362;2023-04-03T08:50:17;4.65;;;1.25;;
51326;SDS011;37412;52.836;6.362;2023-04-03T08:53:11;3.47;;;1.25;;
51326;SDS011;37412;52.836;6.362;2023-04-03T08:58:55;3.30;;;1.15;;
51326;SDS011;37412;52.836;6.362;2023-04-03T09:01:47;2.72;;;1.25;;
51326;SDS011;37412;52.836;6.362;2023-04-03T09:04:33;2.20;;;1.10;;
51326;SDS011;37412;52.836;6.362;2023-04-03T09:07:56;2.20;;;0.80;;
51326;SDS011;37412;52.836;6.362;2023-04-03T09:10:42;2.13;;;0.93;;
51326;SDS011;37412;52.836;6.362;2023-04-03T09:13:47;2.90;;;1.48;;
51326;SDS011;37412;52.836;6.362;2023-04-03T09:17:15;3.38;;;1.20;;
51326;SDS011;37412;52.836;6.362;2023-04-03T09:20:11;3.85;;;1.00;;
51326;SDS011;37412;52.836;6.362;2023-04-03T09:23:19;1.98;;;1.00;;
51326;SDS011;37412;52.836;6.362;2023-04-03T09:29:07;5.13;;;1.08;;
51326;SDS011;37412;52.836;6.362;2023-04-03T09:32:00;2.85;;;0.98;;
51326;SDS011;37412;52.836;6.362;2023-04-03T09:34:48;2.72;;;1.00;;
51326;SDS011;37412;52.836;6.362;2023-04-03T09:37:38;3.00;;;1.20;;
51326;SDS011;37412;52.836;6.362;2023-04-03T09:49:17;1.63;;;0.77;;
51326;SDS011;37412;52.836;6.362;2023-04-03T09:52:22;2.67;;;0.80;;
51326;SDS011;37412;52.836;6.362;2023-04-03T09:55:18;2.95;;;0.75;;
51326;SDS011;37412;52.836;6.362;2023-04-03T09:58:26;3.13;;;0.70;;
51326;SDS011;37412;52.836;6.362;2023-04-03T10:06:58;1.40;;;0.80;;
51326;SDS011;37412;52.836;6.362;2023-04-03T10:09:47;1.40;;;0.55;;
51326;SDS011;37412;52.836;6.362;2023-04-03T10:12:40;2.47;;;1.10;;
51326;SDS011;37412;52.836;6.362;2023-04-03T10:43:10;1.92;;;1.00;;
51326;SDS011;37412;52.836;6.362;2023-04-03T10:46:06;2.15;;;0.82;;
51326;SDS011;37412;52.836;6.362;2023-04-03T10:49:00;2.08;;;0.88;;
51326;SDS011;37412;52.836;6.362;2023-04-03T10:52:37;1.77;;;0.80;;
51326;SDS011;37412;52.836;6.362;2023-04-03T10:55:46;2.17;;;0.88;;
51326;SDS011;37412;52.836;6.362;2023-04-03T10:59:02;2.17;;;0.77;;
51326;SDS011;37412;52.836;6.362;2023-04-03T11:01:58;3.75;;;1.00;;
51326;SDS011;37412;52.836;6.362;2023-04-03T11:04:48;2.15;;;0.70;;
51326;SDS011;37412;52.836;6.362;2023-04-03T11:07:39;1.98;;;1.00;;
51326;SDS011;37412;52.836;6.362;2023-04-03T11:10:36;3.85;;;1.10;;
51326;SDS011;37412;52.836;6.362;2023-04-03T11:13:46;1.35;;;0.70;;
51326;SDS011;37412;52.836;6.362;2023-04-03T11:16:35;2.40;;;0.80;;
51326;SDS011;37412;52.836;6.362;2023-04-03T11:19:33;2.28;;;0.90;;
51326;SDS011;37412;52.836;6.362;2023-04-03T11:22:25;2.15;;;0.77;;
51326;SDS011;37412;52.836;6.362;2023-04-03T12:52:41;2.00;;;1.03;;
51326;SDS011;37412;52.836;6.362;2023-04-03T12:55:30;2.25;;;1.10;;
51326;SDS011;37412;52.836;6.362;2023-04-03T17:53:57;3.08;;;1.33;;
51326;SDS011;37412;52.836;6.362;2023-04-03T17:56:43;3.22;;;1.30;;
51326;SDS011;37412;52.836;6.362;2023-04-03T17:59:32;3.05;;;1.30;;
51326;SDS011;37412;52.836;6.362;2023-04-03T18:02:18;3.20;;;1.52;;
51326;SDS011;37412;52.836;6.362;2023-04-03T18:05:04;7.27;;;3.97;;
51326;SDS011;37412;52.836;6.362;2023-04-03T18:07:50;5.38;;;3.70;;
51326;SDS011;37412;52.836;6.362;2023-04-03T18:10:40;6.28;;;4.90;;
51326;SDS011;37412;52.836;6.362;2023-04-03T18:13:26;6.10;;;4.07;;
51326;SDS011;37412;52.836;6.362;2023-04-03T18:16:12;4.18;;;2.80;;
51326;SDS011;37412;52.836;6.362;2023-04-03T18:18:58;5.57;;;3.00;;
51326;SDS011;37412;52.836;6.362;2023-04-03T18:21:45;4.70;;;2.75;;
51326;SDS011;37412;52.836;6.362;2023-04-03T18:24:35;4.20;;;3.30;;
51326;SDS011;37412;52.836;6.362;2023-04-03T18:27:21;4.87;;;3.40;;
51326;SDS011;37412;52.836;6.362;2023-04-03T18:30:12;4.70;;;2.83;;
51326;SDS011;37412;52.836;6.362;2023-04-03T18:33:00;4.90;;;3.00;;
51326;SDS011;37412;52.836;6.362;2023-04-03T18:35:47;4.25;;;3.08;;
51326;SDS011;37412;52.836;6.362;2023-04-03T18:38:33;5.22;;;2.65;;
51326;SDS011;37412;52.836;6.362;2023-04-03T18:41:24;5.00;;;2.57;;
51326;SDS011;37412;52.836;6.362;2023-04-03T18:44:13;5.17;;;2.60;;
51326;SDS011;37412;52.836;6.362;2023-04-03T18:47:04;5.10;;;2.03;;
51326;SDS011;37412;52.836;6.362;2023-04-03T18:49:52;4.20;;;2.22;;
51326;SDS011;37412;52.836;6.362;2023-04-03T18:52:39;2.40;;;1.50;;
51326;SDS011;37412;52.836;6.362;2023-04-03T18:55:24;4.47;;;1.80;;
51326;SDS011;37412;52.836;6.362;2023-04-03T18:58:10;3.17;;;1.48;;
51326;SDS011;37412;52.836;6.362;2023-04-03T19:00:57;2.50;;;1.55;;
51326;SDS011;37412;52.836;6.362;2023-04-03T19:03:44;3.03;;;1.70;;
51326;SDS011;37412;52.836;6.362;2023-04-03T19:06:31;4.47;;;2.17;;
51326;SDS011;37412;52.836;6.362;2023-04-03T19:09:18;3.05;;;1.60;;
51326;SDS011;37412;52.836;6.362;2023-04-03T19:12:05;2.53;;;1.55;;
51326;SDS011;37412;52.836;6.362;2023-04-03T19:14:52;5.30;;;1.80;;
51326;SDS011;37412;52.836;6.362;2023-04-03T19:17:37;2.25;;;1.42;;
51326;SDS011;37412;52.836;6.362;2023-04-03T19:20:23;3.83;;;1.23;;
51326;SDS011;37412;52.836;6.362;2023-04-03T19:23:10;3.55;;;0.95;;
51326;SDS011;37412;52.836;6.362;2023-04-03T19:26:01;3.33;;;1.00;;
51326;SDS011;37412;52.836;6.362;2023-04-03T19:28:49;3.22;;;1.75;;
51326;SDS011;37412;52.836;6.362;2023-04-03T19:31:36;5.13;;;1.20;;
51326;SDS011;37412;52.836;6.362;2023-04-03T19:34:22;4.05;;;1.23;;
51326;SDS011;37412;52.836;6.362;2023-04-03T19:37:08;1.80;;;0.98;;
51326;SDS011;37412;52.836;6.362;2023-04-03T19:39:54;2.10;;;1.10;;
51326;SDS011;37412;52.836;6.362;2023-04-03T19:42:40;3.72;;;1.20;;
51326;SDS011;37412;52.836;6.362;2023-04-03T19:45:27;2.63;;;1.30;;
51326;SDS011;37412;52.836;6.362;2023-04-03T19:48:13;2.75;;;1.73;;
51326;SDS011;37412;52.836;6.362;2023-04-03T19:50:59;2.75;;;1.33;;
51326;SDS011;37412;52.836;6.362;2023-04-03T19:53:45;4.18;;;1.20;;
51326;SDS011;37412;52.836;6.362;2023-04-03T19:56:32;3.60;;;1.40;;
51326;SDS011;37412;52.836;6.362;2023-04-03T19:59:18;4.05;;;1.60;;
51326;SDS011;37412;52.836;6.362;2023-04-03T20:02:04;3.80;;;1.45;;
51326;SDS011;37412;52.836;6.362;2023-04-03T20:04:51;5.10;;;1.45;;
51326;SDS011;37412;52.836;6.362;2023-04-03T20:07:37;3.70;;;1.50;;
51326;SDS011;37412;52.836;6.362;2023-04-03T20:10:23;4.07;;;1.70;;
51326;SDS011;37412;52.836;6.362;2023-04-03T20:13:09;3.17;;;1.27;;
51326;SDS011;37412;52.836;6.362;2023-04-03T20:15:56;4.50;;;1.52;;
51326;SDS011;37412;52.836;6.362;2023-04-03T20:18:48;4.28;;;1.33;;
51326;SDS011;37412;52.836;6.362;2023-04-03T20:21:35;3.42;;;1.42;;
51326;SDS011;37412;52.836;6.362;2023-04-03T20:24:21;3.67;;;1.52;;
51326;SDS011;37412;52.836;6.362;2023-04-03T20:27:07;4.00;;;1.45;;
51326;SDS011;37412;52.836;6.362;2023-04-03T20:29:53;4.78;;;1.42;;
51326;SDS011;37412;52.836;6.362;2023-04-03T20:32:39;3.38;;;1.85;;
51326;SDS011;37412;52.836;6.362;2023-04-03T20:35:25;3.65;;;1.90;;
51326;SDS011;37412;52.836;6.362;2023-04-03T20:38:13;6.50;;;1.92;;
51326;SDS011;37412;52.836;6.362;2023-04-03T20:40:59;4.30;;;1.63;;
51326;SDS011;37412;52.836;6.362;2023-04-03T20:43:45;4.28;;;2.40;;
51326;SDS011;37412;52.836;6.362;2023-04-03T20:46:32;6.22;;;2.70;;
51326;SDS011;37412;52.836;6.362;2023-04-03T20:49:18;3.28;;;2.00;;
51326;SDS011;37412;52.836;6.362;2023-04-03T20:52:05;3.33;;;1.60;;
51326;SDS011;37412;52.836;6.362;2023-04-03T20:54:50;3.75;;;2.22;;
51326;SDS011;37412;52.836;6.362;2023-04-03T20:57:37;4.72;;;2.03;;
51326;SDS011;37412;52.836;6.362;2023-04-03T21:00:23;3.83;;;1.63;;
51326;SDS011;37412;52.836;6.362;2023-04-03T21:03:10;5.88;;;1.92;;
51326;SDS011;37412;52.836;6.362;2023-04-03T21:21:28;3.25;;;2.15;;
51326;SDS011;37412;52.836;6.362;2023-04-03T21:24:16;5.15;;;2.03;;
51326;SDS011;37412;52.836;6.362;2023-04-03T21:27:02;7.30;;;2.30;;
51326;SDS011;37412;52.836;6.362;2023-04-03T21:29:48;4.25;;;1.88;;
51326;SDS011;37412;52.836;6.362;2023-04-03T21:32:35;10.50;;;2.83;;
51326;SDS011;37412;52.836;6.362;2023-04-03T21:35:20;4.28;;;2.22;;
51326;SDS011;37412;52.836;6.362;2023-04-03T21:38:06;5.28;;;2.40;;
51326;SDS011;37412;52.836;6.362;2023-04-03T21:40:56;5.68;;;2.30;;
51326;SDS011;37412;52.836;6.362;2023-04-03T21:43:44;5.93;;;2.25;;
51326;SDS011;37412;52.836;6.362;2023-04-03T21:46:30;4.95;;;2.08;;
51326;SDS011;37412;52.836;6.362;2023-04-03T21:49:16;4.57;;;2.20;;
51326;SDS011;37412;52.836;6.362;2023-04-03T21:52:02;3.70;;;2.13;;
51326;SDS011;37412;52.836;6.362;2023-04-03T21:54:48;4.55;;;2.13;;
51326;SDS011;37412;52.836;6.362;2023-04-03T21:57:34;6.55;;;2.22;;
51326;SDS011;37412;52.836;6.362;2023-04-03T22:00:20;5.90;;;1.98;;
51326;SDS011;37412;52.836;6.362;2023-04-03T22:03:06;6.88;;;2.40;;
51326;SDS011;37412;52.836;6.362;2023-04-03T22:05:52;6.10;;;2.40;;
51326;SDS011;37412;52.836;6.362;2023-04-03T22:08:43;4.05;;;2.00;;
51326;SDS011;37412;52.836;6.362;2023-04-03T22:11:29;4.88;;;2.17;;
51326;SDS011;37412;52.836;6.362;2023-04-03T22:14:15;4.47;;;2.00;;
51326;SDS011;37412;52.836;6.362;2023-04-03T22:17:02;4.95;;;2.38;;
51326;SDS011;37412;52.836;6.362;2023-04-03T22:19:48;5.20;;;2.13;;
51326;SDS011;37412;52.836;6.362;2023-04-03T22:22:34;4.22;;;2.40;;
51326;SDS011;37412;52.836;6.362;2023-04-03T22:25:20;4.93;;;2.38;;
51326;SDS011;37412;52.836;6.362;2023-04-03T22:28:06;5.20;;;2.17;;
